Neptune Avra — 9HKH6 — position and weather

sailwx.info

Track history (hours):
 
Tides and Currents Weather Stations Pressure Air Temp Water Temp Dewpoint Dewpoint Depression Visibility Wind Speed Wind Dir Waves Ship Positions

Neptune Avra

Last reported at 2015-May-22 03:23 UTC. Time now 2015-May-23 01:10 UTC.
Position N 38°57' E 008°03'.

Length 155 m; draft 6.7 m.

Type: Cargo ship. MMSI: 248598000.

Date/timePositionNaut miles runAvg speedWind from/ knotsBaromVisibWave heightAir tempDewpointWater temp
2015-May-22 03:23N 38°57' E 008°03'2010.4
2015-May-22 01:28N 38°47' E 008°26'1111.8
2015-May-22 00:33N 38°44' E 008°39'24613.5
2015-May-21 06:17N 37°03' E 013°24'1114.7
2015-May-21 05:33N 36°59' E 013°36'1514.6
2015-May-21 04:33N 36°54' E 013°53'1515.0
2015-May-21 03:33N 36°49' E 014°11'1514.8
2015-May-21 02:34N 36°43' E 014°28'1514.7
2015-May-21 01:34N 36°39' E 014°45'1515.1
2015-May-21 00:34N 36°35' E 015°04'1515.0
2015-May-20 23:34N 36°34' E 015°22'1514.8
2015-May-20 22:33N 36°34' E 015°41'1514.8
2015-May-20 21:33N 36°33' E 015°59'1514.9
2015-May-20 20:32N 36°33' E 016°18'3315.0
2015-May-20 18:20N 36°33' E 016°59'1715.2
2015-May-20 17:11N 36°32' E 017°21'1015.1
2015-May-20 16:33N 36°31' E 017°33'1514.9
2015-May-20 15:33N 36°30' E 017°51'28413.5
2015-May-19 18:30N 37°05' E 023°44'3114.8
2015-May-19 16:24N 37°32' E 024°04'1514.2
2015-May-19 15:20N 37°44' E 024°16'1815.4
2015-May-19 14:11N 37°55' E 024°33'3015.2
2015-May-19 12:11N 38°22' E 024°51'  
Track history (hours):
 
Tides and Currents Weather Stations Pressure Air Temp Water Temp Dewpoint Dewpoint Depression Visibility Wind Speed Wind Dir Waves Ship Positions

Neptune Avra

Last reported at 2015-May-22 03:23 UTC. Time now 2015-May-23 01:10 UTC.
Position N 38°57' E 008°03'.

Length 155 m; draft 6.7 m.

Type: Cargo ship. MMSI: 248598000.

Date/timePositionNaut miles runAvg speedWind from/ knotsBaromVisibWave heightAir tempDewpointWater temp
2015-May-22 03:23N 38°57' E 008°03'2010.4
2015-May-22 01:28N 38°47' E 008°26'1111.8
2015-May-22 00:33N 38°44' E 008°39'24613.5
2015-May-21 06:17N 37°03' E 013°24'1114.7
2015-May-21 05:33N 36°59' E 013°36'1514.6
2015-May-21 04:33N 36°54' E 013°53'1515.0
2015-May-21 03:33N 36°49' E 014°11'1514.8
2015-May-21 02:34N 36°43' E 014°28'1514.7
2015-May-21 01:34N 36°39' E 014°45'1515.1
2015-May-21 00:34N 36°35' E 015°04'1515.0
2015-May-20 23:34N 36°34' E 015°22'1514.8
2015-May-20 22:33N 36°34' E 015°41'1514.8
2015-May-20 21:33N 36°33' E 015°59'1514.9
2015-May-20 20:32N 36°33' E 016°18'3315.0
2015-May-20 18:20N 36°33' E 016°59'1715.2
2015-May-20 17:11N 36°32' E 017°21'1015.1
2015-May-20 16:33N 36°31' E 017°33'1514.9
2015-May-20 15:33N 36°30' E 017°51'28413.5
2015-May-19 18:30N 37°05' E 023°44'3114.8
2015-May-19 16:24N 37°32' E 024°04'1514.2
2015-May-19 15:20N 37°44' E 024°16'1815.4
2015-May-19 14:11N 37°55' E 024°33'3015.2
2015-May-19 12:11N 38°22' E 024°51'  

Dump ship's entire track history